Pagrindinis puslapis
METAR-TAF:

METAR-TAF

Oro uostai :

Japas, Mikronezija

platuma: 09-29N, ilguma: 138-05E, Aukštis: 28 m

Dabartinis oras

Ataskaita buvo paskelbta 19 minutes, ne 04:50 UTC
Vėjas 10 kt iš Rytų
Temperatūra 29°C
Drėgmė 74%
Slėgis 1010 hPa
Matomumas: 19.3 km
Mažai debesys ne aukštis 1600 ft
Išsisklaidę debesys ne aukštis 13000 ft
Su prošvaistėmis ne aukštis 30000 ft

METAR: PTYA 290450Z 08010KT 12SM FEW016 SCT130 BKN300 29/24 A2982 RMK SLP100 T02880241

Laikas: 15:09 (05:09 UTC)

Prognozė

Ataskaita buvo paskelbta 5 valandos ir 34 minutes, ne 23:35 UTC
Prognozė galioja nuo 29 metu 00 UTC su 29 metu 24 UTC
Vėjas 12 kt iš Šiaurės Rytų su gūsio iki 20 kt
Matomumas: 10 km
Mažai debesys ne aukštis 1800 ft
Išsisklaidę debesys ne aukštis 5000 ft
Liūtis kaimynystėje
Nuo 29 metu 0800 UTC
Vėjas 10 kt iš Šiaurės Rytų
Matomumas: 10 km
Mažai debesys ne aukštis 1800 ft
Išsisklaidę debesys ne aukštis 5000 ft

TAF: PTYA 282335Z 2900/2924 05012G20KT P6SM VCSH FEW018 SCT050 FM290800 05010KT P6SM FEW018 SCT050

Orai ataskaitas ir orų prognozės (METAR, TAF).

turimą stotys yra geltonos ir raudonos taškus žemėlapyje.

Perkelti pele per norėdami pamatyti stoties vardą.

Tada spustelėkite, norėdami matyti oro stebėjimo ir prognozės.

Norėdami pakeisti žemėlapį: spustelėkite ant žalios mygtukų su juodo kryžiaus žemyn,; žalią mygtuką su brūkšneliu, jei norite nutolinti; arba žalių rodyklių gretimoms žemėlapius.


METAR-TAF: